Time;durP1;ratioP1;P1;durP2;ratioP2;P2;SDS_P1;SDS_P2;PMS_P1;PMS_P2;Temp;Humidity;BMP_temperature;BMP_pressure;BME280_temperature;BME280_humidity;BME280_pressure;Samples;Min_cycle;Max_cycle;Signal;HPM_P1;HPM_P2
2022/12/30 00:00:12;;;;;;;;;;;;;;;5.61;100.00;100927.50;4896745;29;19916;-69
2022/12/30 00:02:37;;;;;;;;;;;;;;;5.57;100.00;100937.09;4904531;29;19921;-66
2022/12/30 00:05:02;;;;;;;;;;;;;;;5.59;100.00;100936.94;4911503;29;20363;-72
2022/12/30 00:07:27;;;;;;;;;;;;;;;5.58;100.00;100937.97;4908371;29;19988;-72
2022/12/30 00:09:56;;;;;;;;;;;;;;;5.55;100.00;100943.81;4891471;29;19919;-70
2022/12/30 00:34:21;;;;;;;;;;;;;;;5.32;100.00;100957.59;4913475;29;19921;-73
2022/12/30 00:36:47;;;;;;;;;;;;;;;5.38;100.00;100965.03;4912231;29;19961;-67
2022/12/30 00:39:12;;;;;;;;;;;;;;;5.29;100.00;100956.13;4897755;29;19966;-71
2022/12/30 00:44:22;;;;;;;;;;;;;;;5.23;100.00;100942.44;4913289;29;19934;-66
2022/12/30 00:46:47;;;;;;;;;;;;;;;5.19;100.00;100948.28;4913323;29;19915;-72
2022/12/30 00:57:24;;;;;;;;;;;;;;;5.10;100.00;100951.31;4904694;29;19974;-74
2022/12/30 00:59:49;;;;;;;;;;;;;;;5.05;100.00;100949.16;4912936;29;19958;-70
2022/12/30 01:02:15;;;;;;;;;;;;;;;5.06;100.00;100947.28;4913376;29;19971;-71
2022/12/30 01:04:40;;;;;;;;;;;;;;;5.05;100.00;100960.03;4912008;29;20009;-74
2022/12/30 01:07:05;;;;;;;;;;;;;;;5.04;100.00;100952.91;4911484;29;19919;-74
2022/12/30 01:09:30;;;;;;;;;;;;;;;5.04;100.00;100958.38;4913184;29;19915;-74
2022/12/30 01:12:08;;;;;;;;;;;;;;;5.02;100.00;100965.88;4912629;29;19967;-74
2022/12/30 01:14:37;;;;;;;;;;;;;;;5.04;100.00;100966.53;4898659;29;19926;-73
2022/12/30 01:17:02;;;;;;;;;;;;;;;5.01;100.00;100966.91;4913475;29;20305;-74
2022/12/30 01:19:27;;;;;;;;;;;;;;;5.11;100.00;100963.88;4913494;29;19915;-74
2022/12/30 01:21:53;;;;;;;;;;;;;;;5.23;100.00;100962.34;4912992;29;19918;-67
2022/12/30 01:24:18;;;;;;;;;;;;;;;5.13;100.00;100959.09;4912545;29;20013;-73
2022/12/30 01:26:43;;;;;;;;;;;;;;;5.21;100.00;100972.56;4911963;29;20339;-72
2022/12/30 01:29:08;;;;;;;;;;;;;;;5.12;100.00;100962.84;4913078;29;19922;-69
2022/12/30 01:31:33;;;;;;;;;;;;;;;5.11;100.00;100963.88;4913717;29;19941;-73
2022/12/30 01:33:58;;;;;;;;;;;;;;;5.10;100.00;100970.34;4912737;29;20362;-74
2022/12/30 01:36:24;;;;;;;;;;;;;;;5.03;100.00;100983.91;4912625;29;20029;-74
2022/12/30 01:38:49;;;;;;;;;;;;;;;5.11;100.00;100981.03;4912157;29;19919;-74
2022/12/30 01:41:14;;;;;;;;;;;;;;;5.03;100.00;100983.06;4911717;29;19919;-73
2022/12/30 01:43:49;;;;;;;;;;;;;;;5.13;100.00;100991.78;4911716;29;19919;-66
2022/12/30 01:46:21;;;;;;;;;;;;;;;5.03;100.00;100989.34;4911596;29;19915;-72
2022/12/30 01:48:46;;;;;;;;;;;;;;;5.00;100.00;100989.72;4912357;29;19926;-74
2022/12/30 01:51:19;;;;;;;;;;;;;;;4.99;100.00;100993.47;4913117;29;20274;-69
2022/12/30 01:53:47;;;;;;;;;;;;;;;5.03;100.00;101000.22;4912274;29;19915;-74
2022/12/30 01:56:31;;;;;;;;;;;;;;;4.94;100.00;100996.78;4911651;29;20287;-74
2022/12/30 01:59:00;;;;;;;;;;;;;;;4.95;100.00;101003.88;4911478;29;19926;-73
2022/12/30 02:01:25;;;;;;;;;;;;;;;4.99;100.00;101004.38;4912385;29;19924;-74
2022/12/30 02:03:57;;;;;;;;;;;;;;;4.98;100.00;101005.41;4911940;29;19919;-72
2022/12/30 02:06:24;;;;;;;;;;;;;;;5.05;100.00;100997.31;4911728;29;19953;-74
2022/12/30 02:08:49;;;;;;;;;;;;;;;4.91;100.00;100996.28;4910313;29;19978;-66
2022/12/30 02:11:15;;;;;;;;;;;;;;;5.05;100.00;100989.16;4911740;29;19915;-70
2022/12/30 02:13:40;;;;;;;;;;;;;;;5.01;100.00;100987.84;4951847;23;19923;-67
2022/12/30 02:16:24;;;;;;;;;;;;;;;4.95;100.00;100987.56;4912493;29;19915;-71
2022/12/30 02:18:52;;;;;;;;;;;;;;;4.90;100.00;100992.72;4910879;29;19984;-70
2022/12/30 02:21:37;;;;;;;;;;;;;;;4.90;100.00;100990.00;4911582;29;20338;-71
2022/12/30 02:24:15;;;;;;;;;;;;;;;4.90;100.00;100997.34;4910669;29;19923;-69
2022/12/30 02:27:16;;;;;;;;;;;;;;;4.85;100.00;100986.19;4911070;29;19915;-68
2022/12/30 02:29:47;;;;;;;;;;;;;;;4.79;100.00;100981.50;4871341;29;20382;-70
2022/12/30 02:32:15;;;;;;;;;;;;;;;4.77;100.00;100973.53;4904139;29;20345;-72
2022/12/30 02:35:02;;;;;;;;;;;;;;;4.76;100.00;100977.25;4911035;29;20021;-68
2022/12/30 02:37:54;;;;;;;;;;;;;;;4.74;100.00;100976.63;4910472;29;19929;-72
2022/12/30 02:40:22;;;;;;;;;;;;;;;4.75;100.00;100972.03;4909932;29;19919;-69
2022/12/30 02:45:47;;;;;;;;;;;;;;;4.77;100.00;100965.38;4911680;29;19965;-71
2022/12/30 02:48:17;;;;;;;;;;;;;;;4.78;100.00;100958.06;4910783;29;19954;-72
2022/12/30 02:53:31;;;;;;;;;;;;;;;4.70;100.00;100950.81;4910634;29;20594;-71
2022/12/30 02:55:57;;;;;;;;;;;;;;;4.74;100.00;100951.28;4910210;29;19922;-69
2022/12/30 02:58:23;;;;;;;;;;;;;;;4.64;100.00;100938.81;4910627;29;19919;-66
2022/12/30 03:03:57;;;;;;;;;;;;;;;4.63;100.00;100931.69;4909132;29;19926;-72
2022/12/30 03:06:34;;;;;;;;;;;;;;;4.59;100.00;100932.28;4910532;29;19998;-66
2022/12/30 03:09:11;;;;;;;;;;;;;;;4.55;100.00;100939.13;4894385;29;19925;-68
2022/12/30 03:11:50;;;;;;;;;;;;;;;4.67;100.00;100935.75;4907991;29;20005;-66
2022/12/30 03:14:21;;;;;;;;;;;;;;;4.51;100.00;100943.25;4909995;29;19919;-71
2022/12/30 03:16:51;;;;;;;;;;;;;;;4.48;100.00;100936.31;4895118;29;19950;-70
2022/12/30 03:19:19;;;;;;;;;;;;;;;4.46;100.00;100946.56;4909606;29;19915;-72
2022/12/30 03:21:45;;;;;;;;;;;;;;;4.45;100.00;100941.28;4909539;29;19926;-71
2022/12/30 03:27:04;;;;;;;;;;;;;;;4.46;100.00;100937.53;4908665;29;19990;-71
2022/12/30 03:29:40;;;;;;;;;;;;;;;4.44;100.00;100937.72;4910721;29;19919;-66
2022/12/30 03:32:08;;;;;;;;;;;;;;;4.40;100.00;100939.97;4910001;29;20080;-72
2022/12/30 03:34:33;;;;;;;;;;;;;;;4.41;100.00;100933.53;4910959;29;19926;-71
2022/12/30 03:37:06;;;;;;;;;;;;;;;4.52;100.00;100934.06;4909316;29;19919;-70
2022/12/30 03:39:42;;;;;;;;;;;;;;;4.50;100.00;100931.53;4908879;29;19975;-72
2022/12/30 03:42:07;;;;;;;;;;;;;;;4.39;100.00;100940.16;4909670;29;20326;-64
2022/12/30 03:44:33;;;;;;;;;;;;;;;4.39;100.00;100935.56;4911309;29;19962;-72
2022/12/30 03:46:58;;;;;;;;;;;;;;;4.33;100.00;100935.47;4909486;29;20290;-68
2022/12/30 03:49:24;;;;;;;;;;;;;;;4.38;100.00;100944.75;4911035;29;19950;-69
2022/12/30 03:51:49;;;;;;;;;;;;;;;4.29;100.00;100948.59;4910165;29;19915;-71
2022/12/30 03:54:14;;;;;;;;;;;;;;;4.27;100.00;100945.22;4909597;29;20378;-69
2022/12/30 03:56:40;;;;;;;;;;;;;;;4.30;100.00;100941.28;4909249;29;20612;-67
2022/12/30 03:59:05;;;;;;;;;;;;;;;4.23;100.00;100943.06;4910650;29;20350;-71
2022/12/30 04:01:30;;;;;;;;;;;;;;;4.19;100.00;100942.59;4909193;29;19919;-71
2022/12/30 04:03:55;;;;;;;;;;;;;;;4.18;100.00;100934.63;4909325;29;19926;-67
2022/12/30 04:06:21;;;;;;;;;;;;;;;4.17;100.00;100939.22;4910804;29;19915;-67
2022/12/30 04:08:46;;;;;;;;;;;;;;;4.20;100.00;100949.72;4910729;29;20366;-71
2022/12/30 04:11:11;;;;;;;;;;;;;;;4.10;100.00;100938.28;4913901;29;19919;-71
2022/12/30 04:13:36;;;;;;;;;;;;;;;4.14;100.00;100943.16;4913285;29;19970;-71
2022/12/30 04:16:01;;;;;;;;;;;;;;;4.18;100.00;100945.50;4913948;29;20253;-70
2022/12/30 04:18:27;;;;;;;;;;;;;;;4.13;100.00;100951.50;4913513;29;19930;-69
2022/12/30 04:20:52;;;;;;;;;;;;;;;4.11;100.00;100948.97;4912917;29;19919;-71
2022/12/30 04:23:17;;;;;;;;;;;;;;;4.06;100.00;100951.41;4912507;29;19969;-73
2022/12/30 04:25:43;;;;;;;;;;;;;;;4.07;100.00;100953.09;4913443;29;19915;-73
2022/12/30 04:28:08;;;;;;;;;;;;;;;4.06;100.00;100965.00;4912808;29;20374;-69
2022/12/30 04:30:33;;;;;;;;;;;;;;;4.08;100.00;100959.38;4914129;29;20413;-73
2022/12/30 04:32:59;;;;;;;;;;;;;;;4.05;100.00;100955.13;4913207;29;19934;-72
2022/12/30 04:35:24;;;;;;;;;;;;;;;4.02;100.00;100958.25;4914036;29;19922;-72
2022/12/30 04:37:50;;;;;;;;;;;;;;;4.02;100.00;100943.81;4912091;29;19935;-70
2022/12/30 04:40:15;;;;;;;;;;;;;;;4.03;100.00;100949.06;4912726;29;19978;-73
2022/12/30 04:42:40;;;;;;;;;;;;;;;4.03;100.00;100942.78;4910618;29;19926;-73
2022/12/30 04:45:06;;;;;;;;;;;;;;;4.01;100.00;100942.13;4912922;29;20421;-73
2022/12/30 04:47:31;;;;;;;;;;;;;;;3.97;100.00;100946.25;4913306;29;19919;-67
2022/12/30 04:49:56;;;;;;;;;;;;;;;3.97;100.00;100946.25;4913291;29;21011;-71
2022/12/30 04:52:21;;;;;;;;;;;;;;;3.97;100.00;100941.66;4912576;29;19927;-71
2022/12/30 04:54:47;;;;;;;;;;;;;;;3.97;100.00;100936.22;4911871;29;19919;-72
2022/12/30 04:57:12;;;;;;;;;;;;;;;3.93;100.00;100937.59;4912954;29;19977;-72
2022/12/30 04:59:37;;;;;;;;;;;;;;;3.97;100.00;100941.66;4913317;29;19919;-66
2022/12/30 05:02:02;;;;;;;;;;;;;;;3.92;100.00;100935.91;4910809;29;19969;-69
2022/12/30 05:04:27;;;;;;;;;;;;;;;3.87;100.00;100936.47;4912408;29;19915;-68
2022/12/30 05:06:53;;;;;;;;;;;;;;;3.86;100.00;100926.63;4907059;29;19927;-69
2022/12/30 05:09:18;;;;;;;;;;;;;;;3.95;100.00;100937.41;4899890;29;19915;-70
2022/12/30 05:11:43;;;;;;;;;;;;;;;3.88;100.00;100935.44;4912028;29;19911;-71
2022/12/30 05:14:08;;;;;;;;;;;;;;;3.89;100.00;100930.84;4912304;29;19926;-74
2022/12/30 05:16:33;;;;;;;;;;;;;;;3.86;100.00;100928.53;4912370;29;19919;-73
2022/12/30 05:18:59;;;;;;;;;;;;;;;3.89;100.00;100928.13;4910038;29;19927;-74
2022/12/30 05:21:24;;;;;;;;;;;;;;;3.87;100.00;100916.63;4908253;29;19926;-74
2022/12/30 05:26:33;;;;;;;;;;;;;;;3.84;100.00;100936.84;4912787;29;19973;-73
2022/12/30 05:28:58;;;;;;;;;;;;;;;3.86;100.00;100931.25;4912240;29;20018;-74
2022/12/30 05:31:23;;;;;;;;;;;;;;;3.88;100.00;100937.31;4911059;29;19926;-74
2022/12/30 05:33:48;;;;;;;;;;;;;;;3.90;100.00;100924.38;4911342;29;19919;-70
2022/12/30 05:36:14;;;;;;;;;;;;;;;3.99;100.00;100911.56;4911293;29;20297;-70
2022/12/30 05:38:39;;;;;;;;;;;;;;;3.97;100.00;100916.34;4910258;29;19915;-73
2022/12/30 05:41:05;;;;;;;;;;;;;;;3.95;100.00;100916.50;4911487;29;19919;-74
2022/12/30 05:43:30;;;;;;;;;;;;;;;4.00;100.00;100924.09;4911089;29;19915;-73
2022/12/30 05:45:57;;;;;;;;;;;;;;;3.93;100.00;100932.16;4911045;29;19925;-73
2022/12/30 05:48:22;;;;;;;;;;;;;;;4.08;100.00;100924.03;4910213;29;19923;-69
2022/12/30 05:50:47;;;;;;;;;;;;;;;4.08;100.00;100919.44;4910818;29;19991;-72
2022/12/30 05:53:12;;;;;;;;;;;;;;;4.01;100.00;100923.94;4908793;29;19947;-71
2022/12/30 05:55:38;;;;;;;;;;;;;;;4.04;100.00;100917.28;4909293;29;20109;-73
2022/12/30 05:58:03;;;;;;;;;;;;;;;4.16;100.00;100918.53;4910919;29;19915;-70
2022/12/30 06:00:28;;;;;;;;;;;;;;;4.04;100.00;100920.84;4909565;29;20062;-73
2022/12/30 06:02:53;;;;;;;;;;;;;;;4.07;100.00;100909.59;4908937;29;19919;-72
2022/12/30 06:05:18;;;;;;;;;;;;;;;4.02;100.00;100911.19;4910583;29;19919;-70
2022/12/30 06:07:44;;;;;;;;;;;;;;;4.08;100.00;100913.16;4909088;29;20313;-73
2022/12/30 06:10:09;;;;;;;;;;;;;;;4.08;100.00;100913.16;4908524;29;19919;-73
2022/12/30 06:12:34;;;;;;;;;;;;;;;4.10;100.00;100909.22;4910409;29;19950;-72
2022/12/30 06:14:59;;;;;;;;;;;;;;;4.09;100.00;100904.81;4910151;29;20041;-73
2022/12/30 06:17:24;;;;;;;;;;;;;;;4.07;100.00;100901.44;4909204;29;21294;-71
2022/12/30 06:19:49;;;;;;;;;;;;;;;4.08;100.00;100903.13;4909381;29;19926;-72
2022/12/30 06:22:15;;;;;;;;;;;;;;;4.11;100.00;100894.63;4908062;29;19951;-70
2022/12/30 06:24:40;;;;;;;;;;;;;;;4.16;100.00;100903.06;4908457;29;19919;-69
2022/12/30 06:27:05;;;;;;;;;;;;;;;4.09;100.00;100893.94;4909953;29;20313;-73
2022/12/30 06:29:30;;;;;;;;;;;;;;;4.13;100.00;100895.25;4909137;29;20258;-72
2022/12/30 06:31:55;;;;;;;;;;;;;;;4.06;100.00;100888.91;4909030;29;20294;-73
2022/12/30 06:34:21;;;;;;;;;;;;;;;4.05;100.00;100891.78;4908037;29;19923;-73
2022/12/30 06:36:46;;;;;;;;;;;;;;;4.02;100.00;100897.63;4908444;29;19922;-70
2022/12/30 06:39:11;;;;;;;;;;;;;;;3.96;100.00;100896.50;4907329;29;20374;-70
2022/12/30 06:41:36;;;;;;;;;;;;;;;4.05;100.00;100889.91;4909184;29;19919;-72
2022/12/30 06:44:01;;;;;;;;;;;;;;;4.05;100.00;100884.47;4908502;29;20511;-72
2022/12/30 06:46:26;;;;;;;;;;;;;;;4.01;100.00;100874.19;4909875;29;20489;-73
2022/12/30 06:48:52;;;;;;;;;;;;;;;4.07;100.00;100868.84;4909376;29;20263;-73
2022/12/30 06:51:17;;;;;;;;;;;;;;;4.07;100.00;100857.97;4907796;29;19978;-71
2022/12/30 06:53:42;;;;;;;;;;;;;;;4.10;100.00;100854.84;4906713;29;19919;-69
2022/12/30 06:56:07;;;;;;;;;;;;;;;4.09;100.00;100845.03;4908056;29;19938;-70
2022/12/30 06:58:33;;;;;;;;;;;;;;;4.09;100.00;100838.75;4909911;29;19926;-72
2022/12/30 07:00:58;;;;;;;;;;;;;;;4.14;100.00;100842.56;4904847;29;20423;-73
2022/12/30 07:03:23;;;;;;;;;;;;;;;4.21;100.00;100830.94;4909455;29;19919;-73
2022/12/30 07:05:48;;;;;;;;;;;;;;;4.21;100.00;100828.22;4908390;29;19950;-74
2022/12/30 07:08:14;;;;;;;;;;;;;;;4.10;100.00;100819.53;4907530;29;20397;-70
2022/12/30 07:10:39;;;;;;;;;;;;;;;4.08;100.00;100816.16;4905803;29;19926;-66
2022/12/30 07:13:04;;;;;;;;;;;;;;;4.15;100.00;100813.53;4908946;29;19919;-72
2022/12/30 07:15:29;;;;;;;;;;;;;;;4.12;100.00;100808.47;4907447;29;19929;-74
2022/12/30 07:17:54;;;;;;;;;;;;;;;4.14;100.00;100801.81;4908235;29;19919;-73
2022/12/30 07:20:20;;;;;;;;;;;;;;;4.27;100.00;100803.03;4908417;29;19959;-73
2022/12/30 07:22:45;;;;;;;;;;;;;;;4.16;100.00;100813.34;4907438;29;19929;-72
2022/12/30 07:25:10;;;;;;;;;;;;;;;4.26;100.00;100807.63;4907255;29;19926;-70
2022/12/30 07:27:36;;;;;;;;;;;;;;;4.21;100.00;100807.34;4908855;29;19919;-72
2022/12/30 07:30:01;;;;;;;;;;;;;;;4.19;100.00;100814.00;4908670;29;20410;-73
2022/12/30 07:32:26;;;;;;;;;;;;;;;4.23;100.00;100810.72;4908459;29;20345;-67
2022/12/30 07:34:51;;;;;;;;;;;;;;;4.17;100.00;100808.75;4907345;29;20338;-74
2022/12/30 07:37:17;;;;;;;;;;;;;;;4.17;100.00;100797.88;4906465;29;19915;-66
2022/12/30 07:39:42;;;;;;;;;;;;;;;4.28;100.00;100807.44;4906867;29;19927;-71
2022/12/30 07:42:07;;;;;;;;;;;;;;;4.22;100.00;100783.72;4909275;29;19951;-66
2022/12/30 07:44:32;;;;;;;;;;;;;;;4.22;100.00;100790.00;4912632;29;19937;-69
2022/12/30 07:46:57;;;;;;;;;;;;;;;4.22;100.00;100778.28;4912384;29;20354;-73
2022/12/30 07:49:23;;;;;;;;;;;;;;;4.30;100.00;100770.00;4912973;29;19915;-73
2022/12/30 07:51:48;;;;;;;;;;;;;;;4.25;100.00;100762.41;4911261;29;20028;-68
2022/12/30 07:54:13;;;;;;;;;;;;;;;4.23;100.00;100761.78;4909687;29;20766;-73
2022/12/30 07:56:38;;;;;;;;;;;;;;;4.18;100.00;100763.38;4911372;29;19969;-68
2022/12/30 07:59:03;;;;;;;;;;;;;;;4.25;100.00;100758.84;4910224;29;19919;-68
2022/12/30 08:01:29;;;;;;;;;;;;;;;4.27;100.00;100746.78;4909141;29;20366;-71
2022/12/30 08:03:54;;;;;;;;;;;;;;;4.29;100.00;100738.41;4906223;29;19974;-74
2022/12/30 08:06:20;;;;;;;;;;;;;;;4.27;100.00;100726.91;4912817;29;19950;-73
2022/12/30 08:08:45;;;;;;;;;;;;;;;4.38;100.00;100727.22;4908184;29;19919;-73
2022/12/30 08:11:12;;;;;;;;;;;;;;;4.39;100.00;100741.66;4902333;29;20047;-74
2022/12/30 08:13:39;;;;;;;;;;;;;;;4.45;100.00;100734.59;4893623;29;19919;-68
2022/12/30 08:16:05;;;;;;;;;;;;;;;4.47;100.00;100727.13;4894031;29;19915;-73
2022/12/30 08:18:30;;;;;;;;;;;;;;;4.60;100.00;100724.50;4893148;29;19938;-74
2022/12/30 08:20:58;;;;;;;;;;;;;;;4.62;100.00;100730.63;4908378;29;20289;-74
2022/12/30 08:23:23;;;;;;;;;;;;;;;4.72;100.00;100724.84;4909908;29;19918;-71
2022/12/30 08:25:48;;;;;;;;;;;;;;;4.69;100.00;100720.63;4911193;29;19921;-67
2022/12/30 08:28:13;;;;;;;;;;;;;;;4.73;100.00;100718.38;4911499;29;20478;-73
2022/12/30 08:30:39;;;;;;;;;;;;;;;4.79;100.00;100717.56;4911152;29;19919;-74
2022/12/30 08:33:04;;;;;;;;;;;;;;;4.87;100.00;100722.88;4912582;29;19998;-74
2022/12/30 08:35:30;;;;;;;;;;;;;;;4.91;100.00;100713.28;4912071;29;19922;-73
2022/12/30 08:37:55;;;;;;;;;;;;;;;4.94;100.00;100700.13;4910962;29;20014;-68
2022/12/30 08:40:20;;;;;;;;;;;;;;;5.02;100.00;100690.09;4911378;29;19915;-72
2022/12/30 08:42:45;;;;;;;;;;;;;;;5.10;100.00;100685.38;4911140;29;19923;-74
2022/12/30 08:45:10;;;;;;;;;;;;;;;5.15;100.00;100684.78;4911663;29;20394;-74
2022/12/30 08:47:35;;;;;;;;;;;;;;;5.24;100.00;100685.47;4911947;29;19915;-74
2022/12/30 08:50:01;;;;;;;;;;;;;;;5.27;100.00;100672.31;4910985;29;20334;-70
2022/12/30 08:52:27;;;;;;;;;;;;;;;5.33;100.00;100662.47;4910832;29;20897;-71
2022/12/30 08:54:52;;;;;;;;;;;;;;;5.54;100.00;100659.66;4910553;29;20314;-72
2022/12/30 08:57:17;;;;;;;;;;;;;;;5.53;100.00;100646.25;4910943;29;19915;-70
2022/12/30 08:59:43;;;;;;;;;;;;;;;5.61;100.00;100651.50;4911159;29;20346;-73
2022/12/30 09:02:11;;;;;;;;;;;;;;;5.64;100.00;100648.38;4911381;29;19915;-73
2022/12/30 09:04:36;;;;;;;;;;;;;;;5.89;100.00;100643.22;4909638;29;19919;-70
2022/12/30 09:07:01;;;;;;;;;;;;;;;5.81;100.00;100643.41;4909500;29;19934;-73
2022/12/30 09:09:26;;;;;;;;;;;;;;;5.94;100.00;100641.59;4908961;29;19923;-67
2022/12/30 09:11:52;;;;;;;;;;;;;;;5.91;100.00;100643.84;4909104;29;19983;-70
2022/12/30 09:14:17;;;;;;;;;;;;;;;5.99;100.00;100641.00;4908253;29;19995;-73
2022/12/30 09:16:43;;;;;;;;;;;;;;;6.03;100.00;100620.41;4910282;29;20290;-73
2022/12/30 09:19:08;;;;;;;;;;;;;;;6.13;100.00;100633.66;4902820;29;19942;-67
2022/12/30 09:21:34;;;;;;;;;;;;;;;6.38;100.00;100625.72;4905364;29;20350;-73
2022/12/30 09:23:59;;;;;;;;;;;;;;;6.36;100.00;100625.09;4900086;29;19923;-73
2022/12/30 09:26:26;;;;;;;;;;;;;;;6.39;100.00;100617.34;4906894;29;19919;-67
2022/12/30 09:28:51;;;;;;;;;;;;;;;6.36;100.00;100619.66;4907729;29;20179;-74
2022/12/30 09:31:17;;;;;;;;;;;;;;;6.50;100.00;100616.72;4910771;29;20081;-74
2022/12/30 09:33:42;;;;;;;;;;;;;;;6.52;100.00;100616.50;4900382;29;19919;-71
2022/12/30 09:36:08;;;;;;;;;;;;;;;6.53;100.00;100612.72;4908467;29;19926;-68
2022/12/30 09:38:33;;;;;;;;;;;;;;;6.60;100.00;100610.00;4903551;29;20356;-74
2022/12/30 09:41:04;;;;;;;;;;;;;;;6.60;100.00;100597.19;4904080;29;19946;-69
2022/12/30 09:43:46;;;;;;;;;;;;;;;6.71;100.00;100593.81;4910637;29;19948;-75
2022/12/30 09:46:12;;;;;;;;;;;;;;;6.75;100.00;100600.53;4910801;29;19937;-74
2022/12/30 09:48:43;;;;;;;;;;;;;;;6.95;100.00;100588.75;4909745;29;19915;-66
2022/12/30 09:51:15;;;;;;;;;;;;;;;6.85;100.00;100578.28;4909553;29;20293;-76
2022/12/30 09:54:00;;;;;;;;;;;;;;;6.88;100.00;100575.09;4906017;29;19919;-70
2022/12/30 09:56:29;;;;;;;;;;;;;;;6.95;100.00;100572.38;4906209;29;20291;-75
2022/12/30 09:58:54;;;;;;;;;;;;;;;6.98;100.00;100577.38;4904586;29;19970;-74
2022/12/30 10:01:23;;;;;;;;;;;;;;;6.97;100.00;100562.06;4908219;29;19963;-73
2022/12/30 10:03:50;;;;;;;;;;;;;;;6.94;100.00;100562.47;4910699;29;19919;-75
2022/12/30 10:06:25;;;;;;;;;;;;;;;7.01;100.00;100552.41;4903442;29;19923;-74
2022/12/30 10:09:01;;;;;;;;;;;;;;;7.19;100.00;100538.88;4910504;29;20521;-75
2022/12/30 10:11:38;;;;;;;;;;;;;;;7.04;100.00;100541.03;4911556;29;19962;-74
2022/12/30 10:14:06;;;;;;;;;;;;;;;7.10;100.00;100534.72;4912051;29;19923;-68
2022/12/30 10:16:54;;;;;;;;;;;;;;;7.23;100.00;100528.38;4908570;29;20283;-68
2022/12/30 10:19:33;;;;;;;;;;;;;;;7.11;100.00;100521.91;4899279;29;19926;-74
2022/12/30 10:22:06;;;;;;;;;;;;;;;7.19;100.00;100517.03;4910946;29;19970;-74
2022/12/30 10:24:43;;;;;;;;;;;;;;;7.16;100.00;100506.56;4910388;29;19991;-73
2022/12/30 10:27:16;;;;;;;;;;;;;;;7.15;100.00;100484.94;4910226;29;19975;-75
2022/12/30 10:29:43;;;;;;;;;;;;;;;7.20;100.00;100485.94;4911289;29;19919;-73
2022/12/30 10:32:17;;;;;;;;;;;;;;;7.16;100.00;100478.41;4909575;29;20366;-73
2022/12/30 10:34:43;;;;;;;;;;;;;;;7.17;100.00;100483.63;4900793;29;19919;-67
2022/12/30 10:37:15;;;;;;;;;;;;;;;7.13;100.00;100476.09;4909474;29;19926;-72
2022/12/30 10:39:44;;;;;;;;;;;;;;;7.24;100.00;100459.84;4905816;29;19930;-74
2022/12/30 10:42:29;;;;;;;;;;;;;;;7.18;100.00;100449.81;4911274;29;20230;-74
2022/12/30 10:45:04;;;;;;;;;;;;;;;7.20;100.00;100447.72;4872059;29;20274;-70
2022/12/30 10:47:30;;;;;;;;;;;;;;;7.20;100.00;100431.31;4909729;29;20282;-73
2022/12/30 10:50:01;;;;;;;;;;;;;;;7.26;100.00;100424.16;4908881;29;19926;-70
2022/12/30 10:52:27;;;;;;;;;;;;;;;7.28;100.00;100416.56;4910823;29;19919;-74
2022/12/30 10:54:52;;;;;;;;;;;;;;;7.31;100.00;100409.84;4910280;29;19921;-74
2022/12/30 10:57:21;;;;;;;;;;;;;;;7.49;99.33;100390.78;4909615;29;19919;-67
2022/12/30 10:59:47;;;;;;;;;;;;;;;7.36;100.00;100385.41;4910678;29;19915;-74
2022/12/30 11:02:21;;;;;;;;;;;;;;;7.47;99.29;100379.25;4910843;29;20375;-74
2022/12/30 11:04:46;;;;;;;;;;;;;;;7.43;100.00;100367.91;4911066;29;19911;-74
2022/12/30 11:07:13;;;;;;;;;;;;;;;7.61;99.17;100358.13;4909813;29;19925;-73
2022/12/30 11:09:38;;;;;;;;;;;;;;;7.62;99.46;100348.84;4898940;29;19915;-66
2022/12/30 11:15:09;;;;;;;;;;;;;;;7.54;99.39;100341.75;4902114;29;20266;-73
2022/12/30 11:17:44;;;;;;;;;;;;;;;7.64;98.61;100322.94;4908988;29;19919;-70
2022/12/30 11:20:12;;;;;;;;;;;;;;;7.69;98.57;100314.91;4908944;29;19926;-74
2022/12/30 11:22:44;;;;;;;;;;;;;;;7.75;98.17;100310.44;4903589;29;19966;-73
2022/12/30 11:25:29;;;;;;;;;;;;;;;7.86;97.60;100306.16;4910053;29;19953;-76
2022/12/30 11:27:56;;;;;;;;;;;;;;;7.80;97.96;100288.72;4898606;29;19983;-69
2022/12/30 11:30:36;;;;;;;;;;;;;;;7.75;97.93;100274.91;4906205;29;19938;-75
2022/12/30 11:33:06;;;;;;;;;;;;;;;7.73;98.85;100277.88;4909292;29;19923;-72
2022/12/30 11:35:39;;;;;;;;;;;;;;;7.88;97.92;100261.09;4910757;29;19911;-71
2022/12/30 11:38:24;;;;;;;;;;;;;;;7.80;98.68;100247.72;4909671;29;19922;-72
2022/12/30 11:40:49;;;;;;;;;;;;;;;7.88;97.73;100244.69;4909955;29;19915;-68
2022/12/30 11:43:16;;;;;;;;;;;;;;;7.92;97.57;100236.88;4910529;29;19922;-74
2022/12/30 11:45:59;;;;;;;;;;;;;;;7.90;97.86;100226.16;4910161;29;19915;-74
2022/12/30 11:48:30;;;;;;;;;;;;;;;7.98;97.52;100231.34;4910568;29;19963;-74
2022/12/30 11:50:56;;;;;;;;;;;;;;;8.03;96.41;100222.44;4909867;29;19915;-68
2022/12/30 11:53:24;;;;;;;;;;;;;;;7.94;97.53;100202.78;4909254;29;19990;-73
2022/12/30 11:55:52;;;;;;;;;;;;;;;8.04;97.07;100196.75;4910320;29;19922;-76
2022/12/30 11:58:18;;;;;;;;;;;;;;;8.06;96.63;100197.38;4909997;29;19915;-70
2022/12/30 12:00:44;;;;;;;;;;;;;;;8.11;96.10;100183.84;4909912;29;19915;-70
2022/12/30 12:03:14;;;;;;;;;;;;;;;8.07;96.53;100168.97;4910112;29;20465;-69
2022/12/30 12:05:42;;;;;;;;;;;;;;;8.18;96.12;100164.59;4909958;29;19978;-74
2022/12/30 12:08:26;;;;;;;;;;;;;;;8.26;94.95;100145.13;4909517;29;19971;-67
2022/12/30 12:10:55;;;;;;;;;;;;;;;8.35;94.12;100121.84;4907400;29;20362;-69
2022/12/30 12:13:21;;;;;;;;;;;;;;;8.21;94.80;100128.56;4910057;29;19919;-76
2022/12/30 12:15:48;;;;;;;;;;;;;;;8.22;95.93;100125.63;4910290;29;20464;-76
2022/12/30 12:18:31;;;;;;;;;;;;;;;8.35;94.90;100121.00;4910547;29;19917;-73
2022/12/30 12:21:03;;;;;;;;;;;;;;;8.39;94.25;100114.03;4909968;29;20294;-68
2022/12/30 12:23:31;;;;;;;;;;;;;;;8.32;94.96;100112.22;4909189;29;20275;-71
2022/12/30 12:26:02;;;;;;;;;;;;;;;8.47;93.83;100106.31;4909871;29;19922;-74
2022/12/30 12:28:27;;;;;;;;;;;;;;;8.44;94.24;100103.22;4909300;29;20025;-74
2022/12/30 12:31:08;;;;;;;;;;;;;;;8.37;94.94;100092.38;4912944;29;19954;-70
2022/12/30 12:33:38;;;;;;;;;;;;;;;8.45;94.94;100088.47;4913155;29;20342;-67
2022/12/30 12:36:27;;;;;;;;;;;;;;;8.44;95.29;100087.63;4914126;29;19915;-74
2022/12/30 12:38:55;;;;;;;;;;;;;;;8.15;97.24;100061.13;4912001;29;19922;-68
2022/12/30 12:41:36;;;;;;;;;;;;;;;8.17;97.54;100068.03;4913575;29;19970;-72
2022/12/30 12:44:10;;;;;;;;;;;;;;;8.27;97.45;100062.00;4911056;29;19915;-67
2022/12/30 12:46:47;;;;;;;;;;;;;;;8.21;98.36;100043.75;4913248;29;19982;-74
2022/12/30 12:49:18;;;;;;;;;;;;;;;8.13;99.45;100041.38;4913388;29;19915;-74
2022/12/30 12:52:02;;;;;;;;;;;;;;;8.11;100.00;100038.03;4912277;29;19946;-69
2022/12/30 12:54:27;;;;;;;;;;;;;;;8.11;100.00;100027.09;4912532;29;19915;-72
2022/12/30 12:56:59;;;;;;;;;;;;;;;7.97;100.00;100016.38;4912563;29;19922;-74
2022/12/30 12:59:44;;;;;;;;;;;;;;;7.99;100.00;99994.25;4911778;29;20065;-74
2022/12/30 13:02:33;;;;;;;;;;;;;;;7.97;100.00;99986.31;4913056;29;19915;-73
2022/12/30 13:05:07;;;;;;;;;;;;;;;8.00;100.00;99977.63;4866322;29;20290;-75
2022/12/30 13:07:51;;;;;;;;;;;;;;;8.00;100.00;99949.44;4903568;29;20339;-75
2022/12/30 13:10:22;;;;;;;;;;;;;;;7.98;100.00;99935.19;4900386;29;19923;-75
2022/12/30 13:13:02;;;;;;;;;;;;;;;8.00;100.00;99941.25;4903593;29;19950;-73
2022/12/30 13:15:36;;;;;;;;;;;;;;;7.90;100.00;99910.91;4902828;29;19923;-74
2022/12/30 13:18:03;;;;;;;;;;;;;;;8.11;100.00;99888.47;4910899;29;19919;-73
2022/12/30 13:20:30;;;;;;;;;;;;;;;8.05;100.00;99876.56;4911413;29;19978;-72
2022/12/30 13:23:01;;;;;;;;;;;;;;;8.00;100.00;99870.16;4907219;29;19923;-70
2022/12/30 13:25:31;;;;;;;;;;;;;;;8.07;100.00;99852.56;4907438;29;20366;-73
2022/12/30 13:27:57;;;;;;;;;;;;;;;7.92;100.00;99854.13;4898291;29;19923;-68
2022/12/30 13:30:24;;;;;;;;;;;;;;;7.88;100.00;99850.19;4893967;29;19923;-71
2022/12/30 13:32:55;;;;;;;;;;;;;;;8.02;100.00;99841.50;4895561;29;19938;-75